Time;durP1;ratioP1;P1;durP2;ratioP2;P2;SDS_P1;SDS_P2;PMS_P1;PMS_P2;Temp;Humidity;BMP_temperature;BMP_pressure;BME280_temperature;BME280_humidity;BME280_pressure;Samples;Min_cycle;Max_cycle;Signal;HPM_P1;HPM_P2
2022/06/21 00:02:22;;;;;;;28.83;12.93;;;;;;;21.36;68.38;98976.81;5073067;28;20208;-63
2022/06/21 00:04:49;;;;;;;19.27;12.40;;;;;;;21.42;68.78;98979.19;5072648;28;20187;-63
2022/06/21 00:07:21;;;;;;;16.90;11.00;;;;;;;;;;5072995;28;20203;-62
2022/06/21 00:09:48;;;;;;;14.43;10.97;;;;;;;21.43;69.20;98980.88;5072799;28;20187;-63
2022/06/21 00:12:15;;;;;;;17.50;11.20;;;;;;;21.42;69.62;98986.19;5073060;28;20195;-63
2022/06/21 00:14:43;;;;;;;12.80;10.80;;;;;;;;;;5072980;28;20188;-63
2022/06/21 00:17:13;;;;;;;11.83;10.50;;;;;;;21.44;68.85;98990.44;5072802;28;20195;-63
2022/06/21 00:19:43;;;;;;;12.93;10.27;;;;;;;21.47;69.04;98977.28;5072169;28;20448;-63
2022/06/21 00:22:12;;;;;;;10.83;9.70;;;;;;;21.50;68.69;98971.09;5072487;28;20218;-63
2022/06/21 00:24:39;;;;;;;11.93;9.77;;;;;;;21.52;69.19;98967.50;5072308;28;20712;-63
2022/06/21 00:27:14;;;;;;;12.80;9.27;;;;;;;21.49;69.78;98978.06;5072505;28;20570;-62
2022/06/21 00:29:41;;;;;;;17.07;9.23;;;;;;;21.45;69.48;98984.28;5072354;28;20199;-63
2022/06/21 00:32:13;;;;;;;10.30;8.90;;;;;;;21.40;68.94;98978.38;5072362;28;20731;-64
2022/06/21 00:34:41;;;;;;;9.63;8.57;;;;;;;21.37;69.30;98981.09;5072220;28;20191;-63
2022/06/21 00:37:13;;;;;;;11.47;9.03;;;;;;;21.33;69.32;98978.66;5072295;28;20191;-62
2022/06/21 00:39:40;;;;;;;9.70;8.40;;;;;;;21.24;69.62;98981.59;5072026;28;20206;-64
2022/06/21 00:42:17;;;;;;;11.43;9.33;;;;;;;21.14;69.85;98975.84;5072179;28;20195;-63
2022/06/21 00:44:49;;;;;;;14.13;9.57;;;;;;;21.14;70.35;98968.00;5070700;28;20453;-64
2022/06/21 00:47:21;;;;;;;12.63;9.27;;;;;;;20.89;70.74;98944.47;5071954;28;20253;-64
2022/06/21 00:49:53;;;;;;;11.10;9.07;;;;;;;20.82;71.30;98948.16;5072229;28;20195;-64
2022/06/21 00:52:25;;;;;;;13.23;9.07;;;;;;;20.78;71.43;98953.56;5071936;28;20197;-63
2022/06/21 00:54:55;;;;;;;10.07;9.07;;;;;;;20.76;71.61;98951.00;5071861;28;20194;-55
2022/06/21 00:57:28;;;;;;;7.60;6.90;;;;;;;20.71;68.43;98949.44;5070806;28;20191;-56
2022/06/21 00:59:58;;;;;;;6.53;5.93;;;;;;;20.64;66.42;98947.94;5072277;28;20949;-56
2022/06/21 01:02:32;;;;;;;8.17;5.23;;;;;;;20.65;66.00;98947.03;5071637;28;20191;-55
2022/06/21 01:05:01;;;;;;;7.73;5.30;;;;;;;20.59;66.18;98943.72;5071514;28;20689;-56
2022/06/21 01:07:28;;;;;;;6.13;5.50;;;;;;;20.58;66.79;98942.00;5071755;28;20211;-56
2022/06/21 01:10:03;;;;;;;6.10;5.60;;;;;;;20.56;67.92;98936.00;5071598;28;20187;-63
2022/06/21 01:12:35;;;;;;;7.47;6.13;;;;;;;20.56;68.72;98932.53;5071510;28;20230;-64
2022/06/21 01:15:08;;;;;;;6.97;6.10;;;;;;;20.56;70.07;98936.00;5071559;28;20188;-63
2022/06/21 01:17:37;;;;;;;10.07;7.00;;;;;;;20.57;70.63;98945.53;5071447;28;20578;-63
2022/06/21 01:20:07;;;;;;;8.67;7.77;;;;;;;20.58;71.81;98947.22;5071441;28;20223;-63
2022/06/21 01:22:50;;;;;;;7.97;7.07;;;;;;;20.52;72.48;98947.44;5071283;28;20202;-64
2022/06/21 01:25:34;;;;;;;10.03;8.00;;;;;;;20.44;73.47;98939.00;5071352;28;20196;-65
2022/06/21 01:28:03;;;;;;;9.35;8.60;;;;;;;20.43;74.81;98941.66;5070531;28;20420;-64
2022/06/21 01:30:30;;;;;;;9.13;8.27;;;;;;;20.35;75.14;98949.75;5071473;28;20195;-64
2022/06/21 01:32:58;;;;;;;9.27;8.37;;;;;;;20.22;76.03;98947.50;5071333;28;20187;-64
2022/06/21 01:35:31;;;;;;;9.83;8.90;;;;;;;20.00;77.16;98939.50;5070974;28;20282;-63
2022/06/21 01:37:59;;;;;;;9.50;8.63;;;;;;;19.79;77.83;98932.34;5071163;28;20257;-63
2022/06/21 01:40:30;;;;;;;8.60;7.47;;;;;;;19.68;78.73;98942.22;5071182;28;20192;-64
2022/06/21 01:43:02;;;;;;;8.83;7.93;;;;;;;19.44;79.77;98925.56;5071022;28;20195;-62
2022/06/21 01:45:34;;;;;;;8.90;8.03;;;;;;;19.41;80.45;98929.09;5071035;28;20188;-63
2022/06/21 01:48:06;;;;;;;8.60;7.90;;;;;;;19.25;80.61;98940.81;5071113;28;20195;-63
2022/06/21 01:50:35;;;;;;;9.20;8.40;;;;;;;19.16;81.06;98938.47;5070990;28;20202;-63
2022/06/21 01:53:03;;;;;;;8.85;8.10;;;;;;;19.10;81.12;98935.16;5069705;28;20434;-63
2022/06/21 01:55:36;;;;;;;8.00;7.20;;;;;;;18.98;81.25;98923.31;5070717;28;20192;-63
2022/06/21 01:58:06;;;;;;;8.27;7.43;;;;;;;18.85;81.87;98924.53;5070847;28;20195;-63
2022/06/21 02:00:37;;;;;;;8.73;8.03;;;;;;;18.81;81.96;98922.94;5070647;28;20191;-63
2022/06/21 02:03:12;;;;;;;8.17;7.33;;;;;;;18.83;81.27;98915.91;5070891;28;20620;-64
2022/06/21 02:05:42;;;;;;;9.97;7.53;;;;;;;18.81;81.09;98915.13;5070813;28;20244;-63
2022/06/21 02:08:13;;;;;;;8.00;7.20;;;;;;;18.88;79.88;98918.41;5071042;28;20183;-64
2022/06/21 02:10:44;;;;;;;9.03;6.70;;;;;;;18.91;79.63;98916.56;5070579;28;20192;-64
2022/06/21 02:13:15;;;;;;;7.37;6.67;;;;;;;18.97;77.94;98920.75;5070657;28;20619;-64
2022/06/21 02:15:47;;;;;;;8.07;6.57;;;;;;;18.85;77.95;98925.41;5070482;28;20192;-64
2022/06/21 02:18:17;;;;;;;8.63;6.93;;;;;;;18.82;77.92;98925.47;5070099;28;20209;-64
2022/06/21 02:20:48;;;;;;;7.40;6.77;;;;;;;18.81;78.27;98931.59;5068927;28;20286;-62
2022/06/21 02:23:18;;;;;;;8.77;7.40;;;;;;;18.89;78.17;98925.31;5050240;28;20221;-63
2022/06/21 02:25:46;;;;;;;7.60;6.37;;;;;;;18.89;77.59;98928.78;5050595;28;20260;-63
2022/06/21 02:28:15;;;;;;;8.20;6.30;;;;;;;18.88;76.32;98936.63;5069467;28;20198;-63
2022/06/21 02:30:45;;;;;;;10.27;6.63;;;;;;;18.87;75.65;98934.94;5070317;28;20708;-62
2022/06/21 02:33:17;;;;;;;7.00;6.40;;;;;;;18.84;75.34;98941.91;5070127;28;20180;-63
2022/06/21 02:35:47;;;;;;;9.27;6.82;;;;;;;18.84;75.62;98944.50;5070415;28;20468;-64
2022/06/21 02:38:18;;;;;;;9.63;6.97;;;;;;;18.87;75.41;98947.94;5058462;28;20207;-64
2022/06/21 02:40:49;;;;;;;7.20;6.07;;;;;;;18.95;75.36;98949.47;5050469;28;20204;-65
2022/06/21 02:43:22;;;;;;;7.20;6.43;;;;;;;18.72;75.56;98933.56;5049951;28;20226;-64
2022/06/21 02:45:55;;;;;;;6.57;5.97;;;;;;;18.90;74.68;98953.91;5050212;28;20195;-64
2022/06/21 02:48:27;;;;;;;9.73;5.93;;;;;;;18.91;74.31;98944.34;5050149;28;20177;-63
2022/06/21 02:50:59;;;;;;;6.23;5.63;;;;;;;18.93;74.34;98939.94;5050268;28;20655;-64
2022/06/21 02:53:30;;;;;;;7.13;5.73;;;;;;;18.97;73.62;98945.06;5050391;28;20195;-63
2022/06/21 02:56:03;;;;;;;8.27;5.43;;;;;;;18.99;73.33;98943.25;5050172;28;20199;-63
2022/06/21 02:58:33;;;;;;;6.30;5.63;;;;;;;18.99;73.36;98937.19;5049955;28;20199;-63
2022/06/21 03:01:04;;;;;;;8.50;6.60;;;;;;;19.09;73.53;98930.88;5049713;28;20443;-63
2022/06/21 03:03:33;;;;;;;7.30;6.23;;;;;;;19.30;72.65;98931.13;5069217;28;20191;-63
2022/06/21 03:06:02;;;;;;;9.97;6.67;;;;;;;19.54;71.36;98937.41;5070160;28;20191;-63
2022/06/21 03:08:31;;;;;;;10.83;6.13;;;;;;;19.73;70.40;98933.38;5070027;28;20600;-63
2022/06/21 03:10:59;;;;;;;10.43;6.27;;;;;;;19.93;69.13;98923.22;5069956;28;20210;-63
2022/06/21 03:13:29;;;;;;;7.87;5.73;;;;;;;20.20;68.48;98929.31;5069916;28;20195;-64
2022/06/21 03:15:59;;;;;;;6.87;6.27;;;;;;;20.33;67.49;98932.41;5070227;28;20195;-63
2022/06/21 03:18:32;;;;;;;9.37;6.80;;;;;;;20.28;67.49;98924.75;5069883;28;20202;-65
2022/06/21 03:21:00;;;;;;;6.50;5.80;;;;;;;20.20;67.63;98918.88;5070895;28;20205;-63
2022/06/21 03:23:28;;;;;;;10.07;5.43;;;;;;;20.23;67.52;98923.16;5073645;28;20578;-63
2022/06/21 03:26:00;;;;;;;7.40;5.93;;;;;;;20.29;67.45;98933.44;5073974;28;20198;-63
2022/06/21 03:28:30;;;;;;;6.83;5.20;;;;;;;20.35;66.73;98917.56;5073756;28;20606;-62
2022/06/21 03:31:07;;;;;;;6.47;5.13;;;;;;;20.38;66.38;98922.69;5073759;28;20249;-63
2022/06/21 03:33:38;;;;;;;5.83;5.33;;;;;;;20.47;65.98;98920.63;5073899;28;20489;-64
2022/06/21 03:36:08;;;;;;;6.27;5.77;;;;;;;20.58;65.67;98915.06;5073477;28;20200;-64
2022/06/21 03:38:37;;;;;;;6.70;5.43;;;;;;;20.50;65.52;98889.22;5073405;28;20221;-63
2022/06/21 03:43:53;;;;;;;6.50;5.43;;;;;;;20.76;64.87;98892.72;5073170;28;20254;-63
2022/06/21 03:46:24;;;;;;;6.53;5.33;;;;;;;20.94;64.00;98887.69;5072371;28;20468;-63
2022/06/21 03:48:58;;;;;;;6.97;5.67;;;;;;;21.14;63.65;98887.00;5056962;28;20204;-62
2022/06/21 03:51:30;;;;;;;8.13;5.60;;;;;;;21.11;63.98;98885.38;5053647;28;20223;-63
2022/06/21 03:54:02;;;;;;;6.10;5.50;;;;;;;21.21;63.96;98885.00;5053130;28;20655;-62
2022/06/21 03:56:35;;;;;;;6.47;5.33;;;;;;;21.21;63.23;98857.13;5053103;28;20207;-62
2022/06/21 03:59:11;;;;;;;5.97;5.33;;;;;;;21.34;62.11;98881.94;5053305;28;20200;-63
2022/06/21 04:01:50;;;;;;;6.30;5.63;;;;;;;21.40;62.44;98878.22;5053231;28;20555;-63
2022/06/21 04:04:25;;;;;;;6.23;5.60;;;;;;;21.43;60.98;98883.31;5053100;28;20219;-62
2022/06/21 04:06:59;;;;;;;8.63;5.67;;;;;;;21.37;60.87;98900.06;5052993;28;20199;-63
2022/06/21 04:09:32;;;;;;;8.65;5.82;;;;;;;21.33;61.34;98895.91;5052304;28;20945;-63
2022/06/21 04:12:05;;;;;;;10.70;6.00;;;;;;;21.39;61.55;98889.59;5052984;28;20196;-62
2022/06/21 04:14:39;;;;;;;6.67;5.97;;;;;;;21.43;61.49;98885.94;5052867;28;20184;-63
2022/06/21 04:17:15;;;;;;;7.43;5.80;;;;;;;21.49;61.48;98897.03;5052835;28;20192;-63
2022/06/21 04:19:49;;;;;;;9.30;5.90;;;;;;;21.45;61.59;98884.97;5052722;28;20253;-63
2022/06/21 04:22:22;;;;;;;6.37;5.80;;;;;;;21.52;61.54;98889.06;5072334;28;20199;-63
2022/06/21 04:24:55;;;;;;;9.77;7.67;;;;;;;21.52;61.51;98885.59;5072581;28;20223;-64
2022/06/21 04:27:36;;;;;;;6.00;5.57;;;;;;;21.56;60.98;98877.56;5072358;28;20199;-64
2022/06/21 04:30:06;;;;;;;7.73;5.90;;;;;;;21.60;61.25;98880.94;5070584;28;20201;-63
2022/06/21 04:32:38;;;;;;;7.13;6.30;;;;;;;21.69;61.23;98883.22;5072044;28;20195;-62
2022/06/21 04:35:11;;;;;;;8.30;6.07;;;;;;;21.79;60.38;98889.78;5072222;28;20199;-62
2022/06/21 04:37:44;;;;;;;7.00;6.37;;;;;;;21.86;60.33;98888.66;5072258;28;20195;-63
2022/06/21 04:40:19;;;;;;;8.47;6.60;;;;;;;21.92;59.17;98893.66;5072194;28;20236;-63
2022/06/21 04:42:52;;;;;;;7.43;6.13;;;;;;;21.90;59.01;98892.88;5071775;28;20198;-61
2022/06/21 04:45:25;;;;;;;10.23;7.00;;;;;;;21.92;58.93;98892.81;5067131;28;20218;-63
2022/06/21 04:48:04;;;;;;;10.07;6.90;;;;;;;22.07;58.67;98882.59;5071850;28;20763;-63
2022/06/21 04:50:39;;;;;;;8.70;6.93;;;;;;;22.13;59.26;98868.41;5070546;28;20440;-56
2022/06/21 04:53:16;;;;;;;8.60;6.93;;;;;;;22.21;58.49;98868.94;5071703;28;20195;-56
2022/06/21 04:55:54;;;;;;;6.97;6.30;;;;;;;22.20;58.38;98870.72;5071460;28;20191;-56
2022/06/21 04:58:21;;;;;;;7.13;6.37;;;;;;;22.28;58.32;98873.88;5071239;28;20192;-56
2022/06/21 05:00:48;;;;;;;8.90;6.43;;;;;;;22.36;58.59;98876.16;5071296;28;20293;-56
2022/06/21 05:03:26;;;;;;;7.10;6.40;;;;;;;22.46;57.88;98884.50;5068902;28;20196;-62
2022/06/21 05:05:54;;;;;;;7.10;6.43;;;;;;;22.54;58.30;98888.50;5066741;28;20211;-64
2022/06/21 05:08:24;;;;;;;7.80;7.00;;;;;;;22.57;58.35;98891.00;5068098;28;20206;-64
2022/06/21 05:10:55;;;;;;;7.63;7.03;;;;;;;22.65;58.03;98882.84;5070516;28;20176;-64
2022/06/21 05:13:28;;;;;;;8.80;6.47;;;;;;;22.75;58.06;98890.25;5070589;28;20249;-64
2022/06/21 05:15:58;;;;;;;12.30;7.27;;;;;;;22.83;57.79;98890.75;5070497;28;20202;-63
2022/06/21 05:18:30;;;;;;;10.67;6.63;;;;;;;23.01;57.85;98896.13;5071272;28;20199;-64
2022/06/21 05:21:01;;;;;;;15.97;8.90;;;;;;;23.20;57.92;98881.31;5071186;28;20252;-63
2022/06/21 05:23:28;;;;;;;6.83;6.23;;;;;;;23.31;57.36;98884.28;5070279;28;20286;-62
2022/06/21 05:26:00;;;;;;;6.87;6.17;;;;;;;23.37;56.83;98873.53;5070891;28;20218;-63
2022/06/21 05:28:32;;;;;;;6.50;5.90;;;;;;;23.47;56.01;98880.94;5050538;28;20177;-63
2022/06/21 05:31:03;;;;;;;7.80;5.47;;;;;;;23.63;56.26;98877.59;5050947;28;20192;-63
2022/06/21 05:33:34;;;;;;;9.50;7.20;;;;;;;23.75;55.98;98875.28;5050879;28;20215;-63
2022/06/21 05:36:04;;;;;;;6.97;5.90;;;;;;;23.81;54.68;98876.75;5065088;28;20727;-63
2022/06/21 05:38:33;;;;;;;8.93;6.37;;;;;;;23.85;54.76;98884.41;5068779;28;20200;-63
2022/06/21 05:41:05;;;;;;;8.87;5.90;;;;;;;23.78;53.50;98862.03;5069607;28;20192;-63
2022/06/21 05:43:38;;;;;;;8.47;6.13;;;;;;;23.98;52.78;98887.31;5066830;28;20219;-63
2022/06/21 05:46:12;;;;;;;6.33;5.20;;;;;;;24.01;52.96;98885.38;5069713;28;20263;-63
2022/06/21 05:48:40;;;;;;;6.47;5.87;;;;;;;24.04;53.60;98890.47;5070089;28;20714;-63
2022/06/21 05:51:15;;;;;;;8.03;6.47;;;;;;;24.17;53.28;98882.06;5069665;28;20198;-63
2022/06/21 05:53:47;;;;;;;8.83;6.53;;;;;;;24.32;52.66;98878.66;5069331;28;20191;-63
2022/06/21 05:56:19;;;;;;;9.40;6.80;;;;;;;24.43;52.49;98874.59;5067164;28;20438;-63
2022/06/21 05:58:49;;;;;;;6.10;5.47;;;;;;;24.56;52.09;98866.94;5069744;28;20179;-64
2022/06/21 06:01:21;;;;;;;9.27;6.30;;;;;;;24.58;51.71;98873.81;5070028;28;20956;-64
2022/06/21 06:03:55;;;;;;;8.67;6.30;;;;;;;24.57;52.88;98866.03;5066615;28;20195;-64
2022/06/21 06:06:24;;;;;;;7.03;6.33;;;;;;;24.74;51.90;98863.41;5069194;28;20219;-61
2022/06/21 06:08:55;;;;;;;6.83;6.10;;;;;;;24.84;51.40;98864.66;5064097;28;20192;-64
2022/06/21 06:11:25;;;;;;;6.43;5.83;;;;;;;24.74;52.34;98857.28;5068673;28;20204;-63
2022/06/21 06:13:54;;;;;;;8.43;5.77;;;;;;;24.92;52.76;98854.59;5069513;28;20187;-63
2022/06/21 06:16:36;;;;;;;7.47;6.17;;;;;;;25.12;52.47;98858.81;5065282;28;20252;-64
2022/06/21 06:19:06;;;;;;;14.27;6.43;;;;;;;25.29;51.88;98847.38;5069159;28;20195;-63
2022/06/21 06:21:40;;;;;;;11.57;6.47;;;;;;;25.46;50.22;98861.34;5070318;28;20184;-63
2022/06/21 06:24:16;;;;;;;6.82;5.72;;;;;;;25.66;47.99;98865.53;5068563;28;20433;-64
2022/06/21 06:26:46;;;;;;;6.27;5.10;;;;;;;25.85;48.78;98855.69;5068164;28;20566;-64
2022/06/21 06:29:18;;;;;;;5.47;4.97;;;;;;;25.93;45.99;98852.63;5064263;28;20199;-63
2022/06/21 06:31:52;;;;;;;4.60;4.20;;;;;;;26.03;43.31;98862.56;5069302;28;20202;-63
2022/06/21 06:34:23;;;;;;;4.67;4.37;;;;;;;26.06;42.85;98865.03;5067848;28;20191;-63
2022/06/21 06:36:56;;;;;;;5.37;4.87;;;;;;;26.15;42.85;98856.59;5068362;28;20197;-64
2022/06/21 06:39:25;;;;;;;4.77;4.37;;;;;;;26.25;42.33;98868.34;5069600;28;20258;-64
2022/06/21 06:42:01;;;;;;;4.63;4.03;;;;;;;26.31;42.43;98859.22;5069884;28;20199;-63
2022/06/21 06:44:29;;;;;;;4.77;4.37;;;;;;;26.35;41.81;98861.59;5069638;28;20226;-63
2022/06/21 06:47:01;;;;;;;4.00;3.70;;;;;;;26.46;41.45;98865.38;5069500;28;20690;-63
2022/06/21 06:49:33;;;;;;;4.40;4.10;;;;;;;26.56;41.43;98856.88;5069720;28;20198;-63
2022/06/21 06:52:10;;;;;;;4.20;3.90;;;;;;;26.62;41.01;98858.28;5069772;28;20188;-63
2022/06/21 06:54:50;;;;;;;4.00;3.70;;;;;;;26.53;41.26;98832.47;5065747;28;20281;-63
2022/06/21 06:57:25;;;;;;;5.20;4.17;;;;;;;26.79;42.22;98855.53;5073178;28;20194;-64
2022/06/21 06:59:53;;;;;;;4.43;4.10;;;;;;;26.81;41.45;98848.41;5073906;28;20218;-64
2022/06/21 07:02:27;;;;;;;4.32;3.80;;;;;;;26.79;41.11;98855.53;5072830;28;20920;-63
2022/06/21 07:05:03;;;;;;;4.60;4.13;;;;;;;26.90;41.08;98853.09;5073945;28;20280;-63
2022/06/21 07:07:41;;;;;;;4.63;4.20;;;;;;;26.93;41.98;98847.63;5073082;28;20445;-63
2022/06/21 07:10:14;;;;;;;4.63;4.23;;;;;;;27.03;41.59;98846.13;5073208;28;20226;-64
2022/06/21 07:12:41;;;;;;;6.05;4.28;;;;;;;27.15;41.34;98852.44;5074013;28;20183;-65
2022/06/21 07:15:11;;;;;;;4.90;4.50;;;;;;;27.19;40.22;98848.69;5074016;28;20225;-63
2022/06/21 07:17:41;;;;;;;4.53;4.13;;;;;;;27.20;39.80;98842.47;5066456;28;20196;-64
2022/06/21 07:20:15;;;;;;;4.30;3.90;;;;;;;27.33;41.05;98843.41;5065664;28;20191;-64
2022/06/21 07:22:45;;;;;;;4.70;4.30;;;;;;;27.39;40.94;98835.94;5073079;28;20195;-64
2022/06/21 07:25:20;;;;;;;4.27;3.70;;;;;;;27.53;39.92;98837.75;5052684;28;20212;-66
2022/06/21 07:27:52;;;;;;;4.57;4.18;;;;;;;27.70;39.18;98840.19;5052890;28;20905;-58
2022/06/21 07:30:22;;;;;;;5.10;3.80;;;;;;;27.78;38.99;98837.03;5053008;28;20193;-56
2022/06/21 07:32:54;;;;;;;6.85;3.92;;;;;;;27.79;39.20;98838.75;5053101;28;20250;-56
2022/06/21 07:35:28;;;;;;;4.35;3.95;;;;;;;27.80;40.30;98836.00;5052876;28;20818;-56
2022/06/21 07:38:00;;;;;;;4.57;4.18;;;;;;;28.00;39.43;98840.84;5057381;28;20191;-57
2022/06/21 07:40:32;;;;;;;5.28;3.88;;;;;;;27.98;38.80;98834.81;5070718;28;20237;-57
2022/06/21 07:43:05;;;;;;;3.67;3.38;;;;;;;28.01;38.18;98825.84;5072055;28;20199;-57
2022/06/21 07:45:37;;;;;;;4.45;4.05;;;;;;;28.10;39.05;98827.94;5070951;28;20212;-57
2022/06/21 07:48:08;;;;;;;4.13;3.75;;;;;;;28.32;38.61;98825.53;5067756;28;20656;-57
2022/06/21 07:50:40;;;;;;;4.55;4.15;;;;;;;28.26;38.05;98802.19;5072374;28;20191;-57
2022/06/21 07:53:15;;;;;;;6.90;4.40;;;;;;;28.50;38.67;98832.25;5072355;28;20183;-56
2022/06/21 07:55:47;;;;;;;4.68;4.25;;;;;;;28.53;38.13;98828.56;5070272;28;20187;-57
2022/06/21 07:58:17;;;;;;;6.68;4.00;;;;;;;28.59;38.15;98831.63;5072081;28;20187;-57
2022/06/21 08:06:43;;;;;;;5.38;4.38;;;;;;;28.75;37.84;98830.63;5069868;28;20215;-56
2022/06/21 08:09:21;;;;;;;6.47;4.53;;;;;;;28.87;38.01;98829.78;5052906;28;20629;-56
2022/06/21 08:11:49;;;;;;;4.90;4.43;;;;;;;28.84;38.24;98814.13;5052767;28;20633;-56
2022/06/21 08:14:17;;;;;;;4.50;4.10;;;;;;;29.07;37.59;98840.66;5059967;28;20342;-56
2022/06/21 08:16:50;;;;;;;4.95;4.55;;;;;;;29.11;37.43;98836.03;5072260;28;20644;-56
2022/06/21 08:19:23;;;;;;;4.47;4.18;;;;;;;29.09;37.67;98830.00;5071889;28;20207;-56
2022/06/21 08:21:56;;;;;;;4.57;4.03;;;;;;;29.23;37.53;98838.66;5072250;28;20196;-56
2022/06/21 08:24:32;;;;;;;5.72;4.18;;;;;;;29.23;37.32;98845.75;5072453;28;20207;-56
2022/06/21 08:27:10;;;;;;;5.90;4.13;;;;;;;29.29;37.68;98844.47;5071860;28;20453;-56
2022/06/21 08:29:42;;;;;;;5.68;4.30;;;;;;;29.31;37.60;98842.59;5071738;28;20191;-55
2022/06/21 08:32:15;;;;;;;5.05;4.57;;;;;;;29.45;37.35;98842.44;5071509;28;20180;-56
2022/06/21 08:34:47;;;;;;;4.43;4.03;;;;;;;29.47;37.58;98836.09;5071470;28;20188;-56
2022/06/21 08:37:21;;;;;;;5.00;4.20;;;;;;;29.59;37.54;98839.66;5066504;28;20447;-56
2022/06/21 08:39:56;;;;;;;8.25;4.50;;;;;;;29.65;37.64;98839.22;5069526;28;20624;-56
2022/06/21 08:43:09;;;;;;;4.30;4.00;;;;;;;29.68;37.97;98845.16;5069098;28;20206;-56
2022/06/21 08:46:09;;;;;;;5.50;4.88;;;;;;;29.77;37.37;98841.84;5049382;28;20219;-56
2022/06/21 08:48:59;;;;;;;5.80;5.28;;;;;;;29.81;37.89;98843.34;5040044;28;20576;-58
2022/06/21 08:52:10;;;;;;;5.07;4.55;;;;;;;29.98;37.97;98839.47;5051667;28;20199;-56
2022/06/21 08:54:50;;;;;;;4.97;4.50;;;;;;;30.00;36.86;98831.38;5057317;28;20206;-56
2022/06/21 08:57:26;;;;;;;6.15;4.32;;;;;;;30.13;35.82;98837.50;5069065;28;20210;-56
2022/06/21 09:00:08;;;;;;;4.95;4.53;;;;;;;30.15;36.86;98828.47;5066515;28;20318;-56
2022/06/21 09:02:48;;;;;;;4.75;4.35;;;;;;;30.18;37.30;98840.66;5069150;28;20223;-56
2022/06/21 09:05:34;;;;;;;6.07;4.63;;;;;;;30.23;36.84;98823.44;5065928;28;20191;-63
2022/06/21 09:08:20;;;;;;;4.47;4.10;;;;;;;30.41;36.42;98828.38;5067811;28;20889;-63
2022/06/21 09:11:00;;;;;;;4.72;4.22;;;;;;;30.60;36.01;98823.38;5067164;28;20206;-64
2022/06/21 09:13:54;;;;;;;5.88;4.50;;;;;;;30.65;36.09;98826.50;5070715;28;20641;-56
2022/06/21 09:16:31;;;;;;;7.28;4.60;;;;;;;30.69;36.20;98823.50;5071069;28;20276;-56
2022/06/21 09:19:09;;;;;;;5.80;4.05;;;;;;;30.73;35.37;98824.09;5069962;28;20249;-56
2022/06/21 09:21:48;;;;;;;4.70;4.25;;;;;;;30.73;35.55;98817.00;5063610;28;20196;-56
2022/06/21 09:24:31;;;;;;;5.18;4.57;;;;;;;30.90;35.75;98821.00;5063099;28;20699;-56
2022/06/21 09:27:05;;;;;;;5.43;4.38;;;;;;;31.04;34.66;98820.78;5052011;28;20216;-56
2022/06/21 09:29:40;;;;;;;4.57;3.90;;;;;;;30.98;34.63;98812.47;5067511;28;20214;-57
2022/06/21 09:32:20;;;;;;;4.68;3.97;;;;;;;31.12;34.87;98810.44;5068165;28;20286;-56
2022/06/21 09:34:59;;;;;;;4.18;3.80;;;;;;;31.25;33.55;98805.00;5068564;28;20199;-56
2022/06/21 09:37:36;;;;;;;4.68;3.80;;;;;;;31.22;32.98;98790.16;5066089;28;20191;-56
2022/06/21 09:40:11;;;;;;;4.60;4.20;;;;;;;31.27;33.49;98792.44;5064252;28;20207;-56
2022/06/21 09:42:48;;;;;;;5.10;3.92;;;;;;;31.37;33.88;98785.44;5069289;28;20203;-58
2022/06/21 09:45:23;;;;;;;4.22;3.88;;;;;;;31.37;33.34;98756.25;5070072;28;20202;-56
2022/06/21 09:47:58;;;;;;;4.45;3.80;;;;;;;31.59;33.79;98785.41;5053416;28;20211;-56
2022/06/21 09:50:31;;;;;;;4.93;3.60;;;;;;;31.73;32.33;98779.00;5049825;28;20206;-57
2022/06/21 09:53:07;;;;;;;4.20;3.78;;;;;;;31.77;32.89;98775.97;5060976;28;21195;-56
2022/06/21 09:55:45;;;;;;;4.07;3.67;;;;;;;31.68;32.71;98762.56;5069592;28;20707;-57
2022/06/21 09:58:19;;;;;;;6.13;3.50;;;;;;;31.83;32.03;98774.63;5049873;28;20196;-57
2022/06/21 10:00:53;;;;;;;4.07;3.47;;;;;;;31.90;32.18;98770.47;5049787;28;20204;-56
2022/06/21 10:03:36;;;;;;;4.53;4.00;;;;;;;31.92;32.32;98772.03;5049155;28;20570;-56
2022/06/21 10:06:12;;;;;;;4.90;3.70;;;;;;;32.02;30.36;98780.13;5049530;28;20212;-56
2022/06/21 10:08:56;;;;;;;6.28;4.32;;;;;;;31.93;30.57;98770.22;5050012;28;20204;-55
2022/06/21 10:11:33;;;;;;;4.68;4.30;;;;;;;31.99;30.50;98767.91;5049793;28;20575;-58
2022/06/21 10:14:31;;;;;;;6.45;4.75;;;;;;;32.08;29.89;98758.38;5057531;28;20202;-56
2022/06/21 10:17:39;;;;;;;5.00;4.60;;;;;;;32.27;30.50;98757.66;5067747;28;20184;-57
2022/06/21 10:20:27;;;;;;;6.55;4.57;;;;;;;32.19;28.92;98765.44;5046969;28;20192;-56
2022/06/21 10:23:03;;;;;;;4.45;4.10;;;;;;;32.28;29.89;98743.41;5067384;28;20195;-56
2022/06/21 10:25:52;;;;;;;5.68;4.22;;;;;;;32.40;30.04;98734.38;5066340;28;20568;-56
2022/06/21 10:28:53;;;;;;;5.30;4.45;;;;;;;32.34;28.47;98746.38;5069806;28;20915;-56
2022/06/21 10:31:32;;;;;;;4.97;4.57;;;;;;;32.32;27.59;98758.13;5033559;28;20223;-56
2022/06/21 10:34:33;;;;;;;10.57;4.47;;;;;;;32.30;28.55;98734.31;5069467;28;20684;-56
2022/06/21 10:37:17;;;;;;;4.75;4.35;;;;;;;32.30;27.83;98747.63;5069762;28;20233;-56
2022/06/21 10:40:03;;;;;;;4.85;4.40;;;;;;;32.35;29.00;98740.09;5069585;28;20199;-56
2022/06/21 10:42:48;;;;;;;5.30;4.43;;;;;;;32.45;29.33;98740.13;5064527;28;20188;-56
2022/06/21 10:45:36;;;;;;;5.93;5.18;;;;;;;32.63;29.07;98727.97;5066307;28;20192;-57
2022/06/21 10:48:38;;;;;;;5.55;5.15;;;;;;;32.62;30.01;98728.94;5067501;28;20207;-56
2022/06/21 10:51:15;;;;;;;6.20;5.65;;;;;;;32.85;30.37;98726.94;5065933;28;20229;-56
2022/06/21 10:54:05;;;;;;;8.93;6.97;;;;;;;32.88;30.04;98732.00;5066837;28;20198;-56
2022/06/21 11:02:40;;;;;;;9.73;6.28;;;;;;;32.75;31.38;98737.53;5069948;28;20194;-57
2022/06/21 11:05:15;;;;;;;7.18;6.57;;;;;;;32.81;31.87;98739.66;5069579;28;20191;-56
2022/06/21 11:07:52;;;;;;;11.52;6.10;;;;;;;32.91;31.14;98737.88;5069310;28;20211;-56
2022/06/21 11:10:26;;;;;;;6.82;6.22;;;;;;;33.03;31.57;98730.66;5069103;28;20243;-57
2022/06/21 11:13:03;;;;;;;7.28;6.68;;;;;;;33.05;31.11;98724.25;5069193;28;20714;-56
2022/06/21 11:15:42;;;;;;;11.43;7.47;;;;;;;33.15;30.91;98741.13;5068850;28;20720;-56
2022/06/21 11:18:23;;;;;;;8.27;6.75;;;;;;;33.13;31.25;98734.22;5069489;28;20198;-56
2022/06/21 11:20:59;;;;;;;7.63;6.07;;;;;;;33.31;32.08;98737.94;5069557;28;20202;-56
2022/06/21 11:23:38;;;;;;;7.18;6.28;;;;;;;33.22;31.72;98744.91;5058945;28;20188;-57
2022/06/21 11:26:16;;;;;;;6.85;6.15;;;;;;;33.39;31.40;98727.44;5049475;28;20702;-57
2022/06/21 11:28:50;;;;;;;7.30;6.70;;;;;;;33.45;31.38;98726.03;5054887;28;20688;-57
2022/06/21 11:31:23;;;;;;;10.77;6.75;;;;;;;33.50;31.50;98719.31;5064636;28;20261;-57
2022/06/21 11:33:59;;;;;;;9.15;7.68;;;;;;;33.44;31.20;98724.34;5060088;28;20192;-57
2022/06/21 11:36:34;;;;;;;8.50;6.82;;;;;;;33.43;31.75;98720.03;5067823;28;20483;-57
2022/06/21 11:39:13;;;;;;;8.63;7.13;;;;;;;33.71;31.74;98721.88;5069323;28;20412;-57
2022/06/21 11:42:08;;;;;;;7.10;6.53;;;;;;;33.77;31.35;98729.31;5055003;28;20557;-57
2022/06/21 11:44:57;;;;;;;7.97;7.22;;;;;;;33.68;32.26;98723.00;5072260;28;20239;-58
2022/06/21 11:47:39;;;;;;;7.88;7.03;;;;;;;33.94;32.19;98709.13;5069377;28;20219;-57
2022/06/21 11:50:17;;;;;;;19.33;7.90;;;;;;;34.05;31.85;98712.50;5062855;28;20622;-57
2022/06/21 11:53:11;;;;;;;8.65;7.70;;;;;;;33.82;31.32;98713.75;5069659;28;20203;-57
2022/06/21 11:55:44;;;;;;;8.38;7.38;;;;;;;33.61;31.90;98710.38;5062562;28;20199;-57
2022/06/21 11:58:22;;;;;;;10.48;7.95;;;;;;;33.60;32.32;98700.69;5059467;28;20732;-57
2022/06/21 12:00:56;;;;;;;8.30;7.50;;;;;;;33.83;32.99;98707.44;5066705;28;20594;-58
2022/06/21 12:03:36;;;;;;;9.05;8.23;;;;;;;33.78;31.91;98702.56;5072335;28;20226;-57
2022/06/21 12:06:11;;;;;;;8.82;8.02;;;;;;;33.84;32.27;98699.31;5068708;28;20570;-57
2022/06/21 12:08:44;;;;;;;9.15;8.25;;;;;;;34.15;32.30;98692.00;5052167;28;20196;-57
2022/06/21 12:11:20;;;;;;;9.93;8.00;;;;;;;34.21;32.27;98695.94;5051948;28;20318;-56
2022/06/21 12:14:00;;;;;;;9.40;8.55;;;;;;;34.06;32.39;98687.53;5052023;28;20211;-57
2022/06/21 12:16:40;;;;;;;9.15;8.43;;;;;;;34.07;32.58;98699.88;5052218;28;20594;-57
2022/06/21 12:19:13;;;;;;;9.35;8.40;;;;;;;33.90;31.55;98681.91;5052100;28;20196;-56
2022/06/21 12:21:45;;;;;;;9.55;8.18;;;;;;;34.02;32.33;98685.25;5052239;28;20192;-57
2022/06/21 12:24:17;;;;;;;11.15;8.35;;;;;;;34.17;32.57;98692.69;5052212;28;20184;-57